sensor_id;sensor_type;location;lat;lon;timestamp;temperature;humidity
4374;DHT22;2201;51.100;6.814;2023-05-10T00:01:21;14.60;98.20
4374;DHT22;2201;51.100;6.814;2023-05-10T00:03:48;14.60;98.20
4374;DHT22;2201;51.100;6.814;2023-05-10T00:06:15;14.60;98.20
4374;DHT22;2201;51.100;6.814;2023-05-10T00:08:42;14.60;98.20
4374;DHT22;2201;51.100;6.814;2023-05-10T00:11:09;14.60;98.20
4374;DHT22;2201;51.100;6.814;2023-05-10T00:13:36;14.60;98.20
4374;DHT22;2201;51.100;6.814;2023-05-10T00:16:03;14.60;98.20
4374;DHT22;2201;51.100;6.814;2023-05-10T00:18:31;14.60;98.20
4374;DHT22;2201;51.100;6.814;2023-05-10T00:20:58;14.60;98.20
4374;DHT22;2201;51.100;6.814;2023-05-10T00:23:25;14.60;98.20
4374;DHT22;2201;51.100;6.814;2023-05-10T00:25:52;14.60;98.20
4374;DHT22;2201;51.100;6.814;2023-05-10T00:28:19;14.60;98.20
4374;DHT22;2201;51.100;6.814;2023-05-10T00:30:45;14.60;98.20
4374;DHT22;2201;51.100;6.814;2023-05-10T00:33:12;14.60;98.20
4374;DHT22;2201;51.100;6.814;2023-05-10T00:35:40;14.60;98.20
4374;DHT22;2201;51.100;6.814;2023-05-10T00:38:08;14.60;98.20
4374;DHT22;2201;51.100;6.814;2023-05-10T00:40:35;14.60;98.20
4374;DHT22;2201;51.100;6.814;2023-05-10T00:43:02;14.60;98.20
4374;DHT22;2201;51.100;6.814;2023-05-10T00:45:30;14.60;98.20
4374;DHT22;2201;51.100;6.814;2023-05-10T00:47:57;14.60;98.20
4374;DHT22;2201;51.100;6.814;2023-05-10T00:50:25;14.60;98.20
4374;DHT22;2201;51.100;6.814;2023-05-10T00:52:53;14.60;98.20
4374;DHT22;2201;51.100;6.814;2023-05-10T00:55:21;14.60;98.20
4374;DHT22;2201;51.100;6.814;2023-05-10T00:57:48;14.60;98.20
4374;DHT22;2201;51.100;6.814;2023-05-10T01:00:15;14.60;98.20
4374;DHT22;2201;51.100;6.814;2023-05-10T01:02:43;14.50;98.20
4374;DHT22;2201;51.100;6.814;2023-05-10T01:05:11;14.50;98.20
4374;DHT22;2201;51.100;6.814;2023-05-10T01:07:39;14.50;98.20
4374;DHT22;2201;51.100;6.814;2023-05-10T01:10:09;14.40;98.20
4374;DHT22;2201;51.100;6.814;2023-05-10T01:12:37;14.40;98.20
4374;DHT22;2201;51.100;6.814;2023-05-10T01:15:06;14.40;98.20
4374;DHT22;2201;51.100;6.814;2023-05-10T01:17:35;14.40;98.20
4374;DHT22;2201;51.100;6.814;2023-05-10T01:20:02;14.40;98.20
4374;DHT22;2201;51.100;6.814;2023-05-10T01:22:59;14.40;98.20
4374;DHT22;2201;51.100;6.814;2023-05-10T01:25:47;14.30;98.20
4374;DHT22;2201;51.100;6.814;2023-05-10T01:28:43;14.30;98.20
4374;DHT22;2201;51.100;6.814;2023-05-10T01:31:37;14.30;98.20
4374;DHT22;2201;51.100;6.814;2023-05-10T01:34:09;14.30;98.20
4374;DHT22;2201;51.100;6.814;2023-05-10T01:36:43;14.30;98.20
4374;DHT22;2201;51.100;6.814;2023-05-10T01:39:15;14.30;98.20
4374;DHT22;2201;51.100;6.814;2023-05-10T01:41:49;14.20;98.20
4374;DHT22;2201;51.100;6.814;2023-05-10T01:44:24;14.30;98.20
4374;DHT22;2201;51.100;6.814;2023-05-10T01:47:07;14.20;98.20
4374;DHT22;2201;51.100;6.814;2023-05-10T01:49:41;14.20;98.20
4374;DHT22;2201;51.100;6.814;2023-05-10T01:52:12;14.20;98.20
4374;DHT22;2201;51.100;6.814;2023-05-10T01:54:43;14.20;98.20
4374;DHT22;2201;51.100;6.814;2023-05-10T01:57:11;14.20;98.20
4374;DHT22;2201;51.100;6.814;2023-05-10T01:59:40;14.20;98.20
4374;DHT22;2201;51.100;6.814;2023-05-10T02:02:09;14.20;98.20
4374;DHT22;2201;51.100;6.814;2023-05-10T02:04:40;14.20;98.20
4374;DHT22;2201;51.100;6.814;2023-05-10T02:07:08;14.20;98.20
4374;DHT22;2201;51.100;6.814;2023-05-10T02:09:37;14.20;98.20
4374;DHT22;2201;51.100;6.814;2023-05-10T02:12:05;14.20;98.20
4374;DHT22;2201;51.100;6.814;2023-05-10T02:14:35;14.30;98.20
4374;DHT22;2201;51.100;6.814;2023-05-10T02:17:05;14.30;98.20
4374;DHT22;2201;51.100;6.814;2023-05-10T02:19:35;14.30;98.20
4374;DHT22;2201;51.100;6.814;2023-05-10T02:22:05;14.30;98.20
4374;DHT22;2201;51.100;6.814;2023-05-10T02:24:34;14.30;98.20
4374;DHT22;2201;51.100;6.814;2023-05-10T02:27:03;14.30;98.20
4374;DHT22;2201;51.100;6.814;2023-05-10T02:29:31;14.30;98.20
4374;DHT22;2201;51.100;6.814;2023-05-10T02:31:59;14.30;98.20
4374;DHT22;2201;51.100;6.814;2023-05-10T02:34:27;14.40;98.20
4374;DHT22;2201;51.100;6.814;2023-05-10T02:36:55;14.40;98.20
4374;DHT22;2201;51.100;6.814;2023-05-10T02:39:24;14.30;98.20
4374;DHT22;2201;51.100;6.814;2023-05-10T02:41:54;14.30;98.20
4374;DHT22;2201;51.100;6.814;2023-05-10T02:44:22;14.30;98.20
4374;DHT22;2201;51.100;6.814;2023-05-10T02:46:49;14.30;98.20
4374;DHT22;2201;51.100;6.814;2023-05-10T02:49:16;14.30;98.20
4374;DHT22;2201;51.100;6.814;2023-05-10T02:51:47;14.30;98.20
4374;DHT22;2201;51.100;6.814;2023-05-10T02:54:18;14.30;98.20
4374;DHT22;2201;51.100;6.814;2023-05-10T02:56:50;14.30;98.20
4374;DHT22;2201;51.100;6.814;2023-05-10T02:59:17;14.30;98.20
4374;DHT22;2201;51.100;6.814;2023-05-10T03:01:44;14.30;98.20
4374;DHT22;2201;51.100;6.814;2023-05-10T03:04:11;14.30;98.20
4374;DHT22;2201;51.100;6.814;2023-05-10T03:06:38;14.30;98.20
4374;DHT22;2201;51.100;6.814;2023-05-10T03:09:06;14.30;98.20
4374;DHT22;2201;51.100;6.814;2023-05-10T03:11:43;14.40;98.20
4374;DHT22;2201;51.100;6.814;2023-05-10T03:14:24;14.40;98.20
4374;DHT22;2201;51.100;6.814;2023-05-10T03:17:00;14.40;98.20
4374;DHT22;2201;51.100;6.814;2023-05-10T03:19:35;14.40;98.20
4374;DHT22;2201;51.100;6.814;2023-05-10T03:22:08;14.40;98.20
4374;DHT22;2201;51.100;6.814;2023-05-10T03:24:36;14.40;98.20
4374;DHT22;2201;51.100;6.814;2023-05-10T03:27:05;14.40;98.20
4374;DHT22;2201;51.100;6.814;2023-05-10T03:29:34;14.40;98.20
4374;DHT22;2201;51.100;6.814;2023-05-10T03:32:01;14.30;98.20
4374;DHT22;2201;51.100;6.814;2023-05-10T03:34:30;14.30;98.20
4374;DHT22;2201;51.100;6.814;2023-05-10T03:36:57;14.30;98.20
4374;DHT22;2201;51.100;6.814;2023-05-10T03:39:23;14.30;98.20
4374;DHT22;2201;51.100;6.814;2023-05-10T03:41:50;14.40;98.20
4374;DHT22;2201;51.100;6.814;2023-05-10T03:44:17;14.40;98.20
4374;DHT22;2201;51.100;6.814;2023-05-10T03:46:45;14.40;98.20
4374;DHT22;2201;51.100;6.814;2023-05-10T03:49:12;14.40;98.20
4374;DHT22;2201;51.100;6.814;2023-05-10T03:51:39;14.40;98.20
4374;DHT22;2201;51.100;6.814;2023-05-10T03:54:05;14.40;98.20
4374;DHT22;2201;51.100;6.814;2023-05-10T03:56:32;14.40;98.20
4374;DHT22;2201;51.100;6.814;2023-05-10T03:58:59;14.40;98.20
4374;DHT22;2201;51.100;6.814;2023-05-10T04:01:26;14.40;98.20
4374;DHT22;2201;51.100;6.814;2023-05-10T04:03:54;14.40;98.20
4374;DHT22;2201;51.100;6.814;2023-05-10T04:06:20;14.40;98.20
4374;DHT22;2201;51.100;6.814;2023-05-10T04:08:47;14.40;98.20
4374;DHT22;2201;51.100;6.814;2023-05-10T04:11:14;14.40;98.20
4374;DHT22;2201;51.100;6.814;2023-05-10T04:13:41;14.40;98.20
4374;DHT22;2201;51.100;6.814;2023-05-10T04:16:08;14.40;98.20
4374;DHT22;2201;51.100;6.814;2023-05-10T04:18:35;14.40;98.20
4374;DHT22;2201;51.100;6.814;2023-05-10T04:21:03;14.40;98.20
4374;DHT22;2201;51.100;6.814;2023-05-10T04:23:30;14.40;98.20
4374;DHT22;2201;51.100;6.814;2023-05-10T04:26:00;14.40;98.20
4374;DHT22;2201;51.100;6.814;2023-05-10T04:28:27;14.50;98.20
4374;DHT22;2201;51.100;6.814;2023-05-10T04:31:01;14.50;98.20
4374;DHT22;2201;51.100;6.814;2023-05-10T04:33:27;14.50;98.20
4374;DHT22;2201;51.100;6.814;2023-05-10T04:35:54;14.50;98.20
4374;DHT22;2201;51.100;6.814;2023-05-10T04:38:23;14.50;98.20
4374;DHT22;2201;51.100;6.814;2023-05-10T04:40:50;14.50;98.20
4374;DHT22;2201;51.100;6.814;2023-05-10T04:43:17;14.50;98.20
4374;DHT22;2201;51.100;6.814;2023-05-10T04:45:43;14.50;98.20
4374;DHT22;2201;51.100;6.814;2023-05-10T04:48:10;14.50;98.20
4374;DHT22;2201;51.100;6.814;2023-05-10T04:50:37;14.60;98.20
4374;DHT22;2201;51.100;6.814;2023-05-10T04:53:04;14.60;98.20
4374;DHT22;2201;51.100;6.814;2023-05-10T04:55:32;14.60;98.20
4374;DHT22;2201;51.100;6.814;2023-05-10T04:57:59;14.60;98.20
4374;DHT22;2201;51.100;6.814;2023-05-10T05:00:26;14.60;98.20
4374;DHT22;2201;51.100;6.814;2023-05-10T05:02:52;14.50;98.20
4374;DHT22;2201;51.100;6.814;2023-05-10T05:05:19;14.50;98.20
4374;DHT22;2201;51.100;6.814;2023-05-10T05:07:46;14.50;98.20
4374;DHT22;2201;51.100;6.814;2023-05-10T05:10:13;14.50;98.20
4374;DHT22;2201;51.100;6.814;2023-05-10T05:12:42;14.60;98.20
4374;DHT22;2201;51.100;6.814;2023-05-10T05:15:09;14.60;98.20
4374;DHT22;2201;51.100;6.814;2023-05-10T05:17:36;14.60;98.20
4374;DHT22;2201;51.100;6.814;2023-05-10T05:20:04;14.60;98.20
4374;DHT22;2201;51.100;6.814;2023-05-10T05:22:31;14.70;98.20
4374;DHT22;2201;51.100;6.814;2023-05-10T05:24:58;14.70;98.20
4374;DHT22;2201;51.100;6.814;2023-05-10T05:27:25;14.80;98.20
4374;DHT22;2201;51.100;6.814;2023-05-10T05:29:54;14.80;98.20
4374;DHT22;2201;51.100;6.814;2023-05-10T05:32:21;14.80;98.20
4374;DHT22;2201;51.100;6.814;2023-05-10T05:34:48;14.80;98.20
4374;DHT22;2201;51.100;6.814;2023-05-10T05:37:16;14.80;98.20
4374;DHT22;2201;51.100;6.814;2023-05-10T05:39:44;14.70;98.20
4374;DHT22;2201;51.100;6.814;2023-05-10T05:42:13;14.70;98.20
4374;DHT22;2201;51.100;6.814;2023-05-10T05:44:40;14.70;98.20
4374;DHT22;2201;51.100;6.814;2023-05-10T05:47:08;14.70;98.20
4374;DHT22;2201;51.100;6.814;2023-05-10T05:49:36;14.70;98.20
4374;DHT22;2201;51.100;6.814;2023-05-10T05:52:03;14.70;98.20
4374;DHT22;2201;51.100;6.814;2023-05-10T05:54:31;14.70;98.20
4374;DHT22;2201;51.100;6.814;2023-05-10T05:56:59;14.70;98.20
4374;DHT22;2201;51.100;6.814;2023-05-10T05:59:26;14.80;98.20
4374;DHT22;2201;51.100;6.814;2023-05-10T06:01:53;14.80;98.20
4374;DHT22;2201;51.100;6.814;2023-05-10T06:04:21;14.80;98.20
4374;DHT22;2201;51.100;6.814;2023-05-10T06:06:48;14.80;98.20
4374;DHT22;2201;51.100;6.814;2023-05-10T06:09:15;14.80;98.20
4374;DHT22;2201;51.100;6.814;2023-05-10T06:11:42;14.80;98.20
4374;DHT22;2201;51.100;6.814;2023-05-10T06:14:09;14.80;98.20
4374;DHT22;2201;51.100;6.814;2023-05-10T06:16:36;14.80;98.20
4374;DHT22;2201;51.100;6.814;2023-05-10T06:19:03;14.80;98.20
4374;DHT22;2201;51.100;6.814;2023-05-10T06:21:31;14.80;98.20
4374;DHT22;2201;51.100;6.814;2023-05-10T06:23:58;14.80;98.20
4374;DHT22;2201;51.100;6.814;2023-05-10T06:26:25;14.80;98.20
4374;DHT22;2201;51.100;6.814;2023-05-10T06:28:53;14.80;98.20
4374;DHT22;2201;51.100;6.814;2023-05-10T06:31:20;14.80;98.20
4374;DHT22;2201;51.100;6.814;2023-05-10T06:33:47;14.80;98.20
4374;DHT22;2201;51.100;6.814;2023-05-10T06:36:14;14.80;98.20
4374;DHT22;2201;51.100;6.814;2023-05-10T06:38:42;14.70;98.20
4374;DHT22;2201;51.100;6.814;2023-05-10T06:41:09;14.70;98.20
4374;DHT22;2201;51.100;6.814;2023-05-10T06:43:36;14.70;98.20
4374;DHT22;2201;51.100;6.814;2023-05-10T06:46:05;14.70;98.20
4374;DHT22;2201;51.100;6.814;2023-05-10T06:48:33;14.60;98.20
4374;DHT22;2201;51.100;6.814;2023-05-10T06:51:00;14.60;98.20
4374;DHT22;2201;51.100;6.814;2023-05-10T06:53:27;14.70;98.20
4374;DHT22;2201;51.100;6.814;2023-05-10T06:55:55;14.70;98.20
4374;DHT22;2201;51.100;6.814;2023-05-10T06:58:22;14.80;98.20
4374;DHT22;2201;51.100;6.814;2023-05-10T07:00:48;14.80;98.20
4374;DHT22;2201;51.100;6.814;2023-05-10T07:03:15;14.90;98.20
4374;DHT22;2201;51.100;6.814;2023-05-10T07:05:42;15.00;98.20
4374;DHT22;2201;51.100;6.814;2023-05-10T07:08:09;15.10;98.20
4374;DHT22;2201;51.100;6.814;2023-05-10T07:10:36;15.20;98.20
4374;DHT22;2201;51.100;6.814;2023-05-10T07:13:04;15.20;98.20
4374;DHT22;2201;51.100;6.814;2023-05-10T07:15:31;15.30;98.20
4374;DHT22;2201;51.100;6.814;2023-05-10T07:17:59;15.30;98.20
4374;DHT22;2201;51.100;6.814;2023-05-10T07:20:26;15.30;98.20
4374;DHT22;2201;51.100;6.814;2023-05-10T07:22:53;15.30;98.20
4374;DHT22;2201;51.100;6.814;2023-05-10T07:25:21;15.30;98.20
4374;DHT22;2201;51.100;6.814;2023-05-10T07:27:48;15.30;98.20
4374;DHT22;2201;51.100;6.814;2023-05-10T07:30:18;15.40;98.20
4374;DHT22;2201;51.100;6.814;2023-05-10T07:32:45;15.50;98.20
4374;DHT22;2201;51.100;6.814;2023-05-10T07:35:13;15.50;98.20
4374;DHT22;2201;51.100;6.814;2023-05-10T07:37:40;15.50;98.20
4374;DHT22;2201;51.100;6.814;2023-05-10T07:40:08;15.60;98.20
4374;DHT22;2201;51.100;6.814;2023-05-10T07:42:36;15.70;98.20
4374;DHT22;2201;51.100;6.814;2023-05-10T07:45:04;15.70;98.20
4374;DHT22;2201;51.100;6.814;2023-05-10T07:47:33;15.70;98.20
4374;DHT22;2201;51.100;6.814;2023-05-10T07:50:00;15.70;98.20
4374;DHT22;2201;51.100;6.814;2023-05-10T07:52:27;15.60;98.20
4374;DHT22;2201;51.100;6.814;2023-05-10T07:54:55;15.60;98.20
4374;DHT22;2201;51.100;6.814;2023-05-10T07:57:23;15.60;98.20
4374;DHT22;2201;51.100;6.814;2023-05-10T07:59:50;15.60;98.20
4374;DHT22;2201;51.100;6.814;2023-05-10T08:02:18;15.70;98.20
4374;DHT22;2201;51.100;6.814;2023-05-10T08:04:46;15.60;98.20
4374;DHT22;2201;51.100;6.814;2023-05-10T08:07:13;15.60;98.20
4374;DHT22;2201;51.100;6.814;2023-05-10T08:09:40;15.60;98.20
4374;DHT22;2201;51.100;6.814;2023-05-10T08:12:07;15.60;98.20
4374;DHT22;2201;51.100;6.814;2023-05-10T08:14:35;15.60;98.20
4374;DHT22;2201;51.100;6.814;2023-05-10T08:17:02;15.70;98.20
4374;DHT22;2201;51.100;6.814;2023-05-10T08:19:29;15.80;98.20
4374;DHT22;2201;51.100;6.814;2023-05-10T08:21:59;15.80;98.20
4374;DHT22;2201;51.100;6.814;2023-05-10T08:24:26;15.90;98.20
4374;DHT22;2201;51.100;6.814;2023-05-10T08:26:53;16.00;98.20
4374;DHT22;2201;51.100;6.814;2023-05-10T08:29:20;16.10;98.20
4374;DHT22;2201;51.100;6.814;2023-05-10T08:31:48;16.20;98.20
4374;DHT22;2201;51.100;6.814;2023-05-10T08:34:15;16.30;98.20
4374;DHT22;2201;51.100;6.814;2023-05-10T08:36:42;16.40;98.20
4374;DHT22;2201;51.100;6.814;2023-05-10T08:39:10;16.60;98.20
4374;DHT22;2201;51.100;6.814;2023-05-10T08:41:39;16.80;98.20
4374;DHT22;2201;51.100;6.814;2023-05-10T08:44:08;16.90;98.20
4374;DHT22;2201;51.100;6.814;2023-05-10T08:46:37;17.10;98.20
4374;DHT22;2201;51.100;6.814;2023-05-10T08:49:06;17.20;98.20
4374;DHT22;2201;51.100;6.814;2023-05-10T08:51:36;17.20;98.20
4374;DHT22;2201;51.100;6.814;2023-05-10T08:54:06;17.20;98.20
4374;DHT22;2201;51.100;6.814;2023-05-10T08:56:34;17.10;98.20
4374;DHT22;2201;51.100;6.814;2023-05-10T08:59:01;17.00;98.20
4374;DHT22;2201;51.100;6.814;2023-05-10T09:01:31;17.00;98.20
4374;DHT22;2201;51.100;6.814;2023-05-10T09:03:59;17.00;98.20
4374;DHT22;2201;51.100;6.814;2023-05-10T09:06:26;16.90;98.20
4374;DHT22;2201;51.100;6.814;2023-05-10T09:08:54;16.90;98.20
4374;DHT22;2201;51.100;6.814;2023-05-10T09:11:22;16.90;98.20
4374;DHT22;2201;51.100;6.814;2023-05-10T09:13:51;16.90;98.20
4374;DHT22;2201;51.100;6.814;2023-05-10T09:16:19;16.80;98.20
4374;DHT22;2201;51.100;6.814;2023-05-10T09:18:47;16.80;98.20
4374;DHT22;2201;51.100;6.814;2023-05-10T09:21:15;16.80;98.20
4374;DHT22;2201;51.100;6.814;2023-05-10T09:23:43;16.70;98.20
4374;DHT22;2201;51.100;6.814;2023-05-10T09:26:10;16.70;98.20
4374;DHT22;2201;51.100;6.814;2023-05-10T09:28:51;16.60;98.20
4374;DHT22;2201;51.100;6.814;2023-05-10T09:31:19;16.60;98.20
4374;DHT22;2201;51.100;6.814;2023-05-10T09:33:47;16.60;98.20
4374;DHT22;2201;51.100;6.814;2023-05-10T09:36:15;16.50;98.20
4374;DHT22;2201;51.100;6.814;2023-05-10T09:38:46;16.40;98.20
4374;DHT22;2201;51.100;6.814;2023-05-10T09:41:17;16.30;98.20
4374;DHT22;2201;51.100;6.814;2023-05-10T09:43:45;16.20;98.20
4374;DHT22;2201;51.100;6.814;2023-05-10T09:46:15;16.20;98.20
4374;DHT22;2201;51.100;6.814;2023-05-10T09:48:43;16.10;98.20
4374;DHT22;2201;51.100;6.814;2023-05-10T09:51:16;16.10;98.20
4374;DHT22;2201;51.100;6.814;2023-05-10T09:53:45;16.20;98.20
4374;DHT22;2201;51.100;6.814;2023-05-10T09:56:12;16.30;98.20
4374;DHT22;2201;51.100;6.814;2023-05-10T09:58:40;16.40;98.20
4374;DHT22;2201;51.100;6.814;2023-05-10T10:01:11;16.50;98.20
4374;DHT22;2201;51.100;6.814;2023-05-10T10:03:43;16.50;98.20
4374;DHT22;2201;51.100;6.814;2023-05-10T10:06:11;16.60;98.20
4374;DHT22;2201;51.100;6.814;2023-05-10T10:08:38;16.60;98.20
4374;DHT22;2201;51.100;6.814;2023-05-10T10:11:06;16.70;98.20
4374;DHT22;2201;51.100;6.814;2023-05-10T10:13:33;16.80;98.20
4374;DHT22;2201;51.100;6.814;2023-05-10T10:16:00;16.90;98.20
4374;DHT22;2201;51.100;6.814;2023-05-10T10:18:27;17.00;98.20
4374;DHT22;2201;51.100;6.814;2023-05-10T10:20:57;17.10;98.20
4374;DHT22;2201;51.100;6.814;2023-05-10T10:23:26;17.10;98.20
4374;DHT22;2201;51.100;6.814;2023-05-10T10:25:55;17.10;98.20
4374;DHT22;2201;51.100;6.814;2023-05-10T10:28:30;17.10;98.20
4374;DHT22;2201;51.100;6.814;2023-05-10T10:31:11;17.20;98.20
4374;DHT22;2201;51.100;6.814;2023-05-10T10:33:55;17.30;98.20
4374;DHT22;2201;51.100;6.814;2023-05-10T10:36:25;17.40;98.20
4374;DHT22;2201;51.100;6.814;2023-05-10T10:39:01;17.60;98.20
4374;DHT22;2201;51.100;6.814;2023-05-10T10:41:33;17.70;98.20
4374;DHT22;2201;51.100;6.814;2023-05-10T10:44:24;17.80;98.20
4374;DHT22;2201;51.100;6.814;2023-05-10T10:47:02;17.90;98.20
4374;DHT22;2201;51.100;6.814;2023-05-10T10:49:31;17.90;98.20
4374;DHT22;2201;51.100;6.814;2023-05-10T10:52:22;17.80;98.20
4374;DHT22;2201;51.100;6.814;2023-05-10T10:54:54;17.80;98.20
4374;DHT22;2201;51.100;6.814;2023-05-10T10:57:24;17.70;98.20
4374;DHT22;2201;51.100;6.814;2023-05-10T11:00:22;17.80;98.20
4374;DHT22;2201;51.100;6.814;2023-05-10T11:02:55;17.80;98.20
4374;DHT22;2201;51.100;6.814;2023-05-10T11:05:37;17.80;98.20
4374;DHT22;2201;51.100;6.814;2023-05-10T11:08:12;17.90;98.20
4374;DHT22;2201;51.100;6.814;2023-05-10T11:10:48;17.90;98.20
4374;DHT22;2201;51.100;6.814;2023-05-10T11:16:22;18.10;98.20
4374;DHT22;2201;51.100;6.814;2023-05-10T11:18:57;18.30;98.20
4374;DHT22;2201;51.100;6.814;2023-05-10T11:21:25;18.50;98.20
4374;DHT22;2201;51.100;6.814;2023-05-10T11:24:14;18.70;98.20
4374;DHT22;2201;51.100;6.814;2023-05-10T11:26:49;18.90;98.20
4374;DHT22;2201;51.100;6.814;2023-05-10T11:29:17;18.90;98.20
4374;DHT22;2201;51.100;6.814;2023-05-10T11:31:45;18.80;98.20
4374;DHT22;2201;51.100;6.814;2023-05-10T11:34:23;18.70;98.20
4374;DHT22;2201;51.100;6.814;2023-05-10T11:36:51;18.60;98.20
4374;DHT22;2201;51.100;6.814;2023-05-10T11:39:22;18.40;98.20
4374;DHT22;2201;51.100;6.814;2023-05-10T11:42:02;18.20;98.20
4374;DHT22;2201;51.100;6.814;2023-05-10T11:44:45;18.00;98.20
4374;DHT22;2201;51.100;6.814;2023-05-10T11:47:13;17.90;98.20
4374;DHT22;2201;51.100;6.814;2023-05-10T11:49:43;17.80;98.20
4374;DHT22;2201;51.100;6.814;2023-05-10T11:52:10;17.70;98.20
4374;DHT22;2201;51.100;6.814;2023-05-10T11:54:45;17.60;98.20
4374;DHT22;2201;51.100;6.814;2023-05-10T11:57:12;17.60;98.20
4374;DHT22;2201;51.100;6.814;2023-05-10T11:59:39;17.60;98.20
4374;DHT22;2201;51.100;6.814;2023-05-10T12:02:10;17.50;98.20
4374;DHT22;2201;51.100;6.814;2023-05-10T12:04:37;17.60;98.20
4374;DHT22;2201;51.100;6.814;2023-05-10T12:07:05;17.70;98.20
4374;DHT22;2201;51.100;6.814;2023-05-10T12:10:01;17.80;98.20
4374;DHT22;2201;51.100;6.814;2023-05-10T12:12:36;18.00;98.20
4374;DHT22;2201;51.100;6.814;2023-05-10T12:15:19;18.20;98.20
4374;DHT22;2201;51.100;6.814;2023-05-10T12:17:50;18.40;98.20
4374;DHT22;2201;51.100;6.814;2023-05-10T12:20:19;18.70;98.20
4374;DHT22;2201;51.100;6.814;2023-05-10T12:22:54;18.90;98.20
4374;DHT22;2201;51.100;6.814;2023-05-10T12:25:29;19.00;98.20
4374;DHT22;2201;51.100;6.814;2023-05-10T12:27:57;19.00;98.20
4374;DHT22;2201;51.100;6.814;2023-05-10T12:30:28;19.00;98.20
4374;DHT22;2201;51.100;6.814;2023-05-10T12:33:00;19.00;98.20
4374;DHT22;2201;51.100;6.814;2023-05-10T12:35:30;18.90;98.20
4374;DHT22;2201;51.100;6.814;2023-05-10T12:37:58;18.80;98.20
4374;DHT22;2201;51.100;6.814;2023-05-10T12:40:26;18.90;98.20
4374;DHT22;2201;51.100;6.814;2023-05-10T12:42:53;18.90;98.20
4374;DHT22;2201;51.100;6.814;2023-05-10T12:49:01;19.00;98.20
4374;DHT22;2201;51.100;6.814;2023-05-10T12:51:28;19.00;98.20
4374;DHT22;2201;51.100;6.814;2023-05-10T12:53:56;19.10;98.20
4374;DHT22;2201;51.100;6.814;2023-05-10T12:56:28;19.10;98.20
4374;DHT22;2201;51.100;6.814;2023-05-10T12:58:55;19.10;98.20
4374;DHT22;2201;51.100;6.814;2023-05-10T13:01:24;19.20;98.20
4374;DHT22;2201;51.100;6.814;2023-05-10T13:03:53;19.30;98.20
4374;DHT22;2201;51.100;6.814;2023-05-10T13:06:20;19.40;98.20
4374;DHT22;2201;51.100;6.814;2023-05-10T13:09:11;19.60;98.20
4374;DHT22;2201;51.100;6.814;2023-05-10T13:11:57;20.10;98.20
4374;DHT22;2201;51.100;6.814;2023-05-10T13:14:25;20.20;98.20
4374;DHT22;2201;51.100;6.814;2023-05-10T13:17:15;20.40;98.20
4374;DHT22;2201;51.100;6.814;2023-05-10T13:19:43;20.40;98.20
4374;DHT22;2201;51.100;6.814;2023-05-10T13:22:13;20.40;98.20
4374;DHT22;2201;51.100;6.814;2023-05-10T13:27:12;20.10;98.20
4374;DHT22;2201;51.100;6.814;2023-05-10T13:29:51;20.00;98.20
4374;DHT22;2201;51.100;6.814;2023-05-10T13:32:26;19.90;98.20
4374;DHT22;2201;51.100;6.814;2023-05-10T13:35:04;19.80;98.20
4374;DHT22;2201;51.100;6.814;2023-05-10T13:37:39;19.60;98.20
4374;DHT22;2201;51.100;6.814;2023-05-10T13:40:07;19.40;98.20
4374;DHT22;2201;51.100;6.814;2023-05-10T13:42:37;19.20;98.20
4374;DHT22;2201;51.100;6.814;2023-05-10T13:45:06;19.10;98.20
4374;DHT22;2201;51.100;6.814;2023-05-10T13:47:33;18.90;98.20
4374;DHT22;2201;51.100;6.814;2023-05-10T13:50:01;18.80;98.20
4374;DHT22;2201;51.100;6.814;2023-05-10T13:52:29;18.70;98.20
4374;DHT22;2201;51.100;6.814;2023-05-10T13:55:07;18.70;98.20
4374;DHT22;2201;51.100;6.814;2023-05-10T13:57:43;18.70;98.20
4374;DHT22;2201;51.100;6.814;2023-05-10T14:00:14;18.60;98.20
4374;DHT22;2201;51.100;6.814;2023-05-10T14:02:44;18.50;98.20
4374;DHT22;2201;51.100;6.814;2023-05-10T14:05:32;18.30;98.20
4374;DHT22;2201;51.100;6.814;2023-05-10T14:08:06;18.20;98.20
4374;DHT22;2201;51.100;6.814;2023-05-10T14:11:04;18.10;98.20
4374;DHT22;2201;51.100;6.814;2023-05-10T14:13:32;18.10;98.20
4374;DHT22;2201;51.100;6.814;2023-05-10T14:16:17;18.10;98.20
4374;DHT22;2201;51.100;6.814;2023-05-10T14:18:54;18.00;98.20
4374;DHT22;2201;51.100;6.814;2023-05-10T14:21:24;18.00;98.20
4374;DHT22;2201;51.100;6.814;2023-05-10T14:23:52;18.00;98.20
4374;DHT22;2201;51.100;6.814;2023-05-10T14:26:25;17.80;98.20
4374;DHT22;2201;51.100;6.814;2023-05-10T14:28:58;17.80;98.20
4374;DHT22;2201;51.100;6.814;2023-05-10T14:31:28;17.70;98.20
4374;DHT22;2201;51.100;6.814;2023-05-10T14:33:59;17.70;98.20
4374;DHT22;2201;51.100;6.814;2023-05-10T14:36:33;17.70;98.20
4374;DHT22;2201;51.100;6.814;2023-05-10T14:39:04;17.70;98.20
4374;DHT22;2201;51.100;6.814;2023-05-10T14:41:32;17.70;98.20
4374;DHT22;2201;51.100;6.814;2023-05-10T14:44:14;17.70;98.20
4374;DHT22;2201;51.100;6.814;2023-05-10T14:46:42;17.80;98.20
4374;DHT22;2201;51.100;6.814;2023-05-10T14:49:10;17.90;98.20
4374;DHT22;2201;51.100;6.814;2023-05-10T14:51:39;18.00;98.20
4374;DHT22;2201;51.100;6.814;2023-05-10T14:54:07;18.00;98.20
4374;DHT22;2201;51.100;6.814;2023-05-10T14:56:36;18.10;98.20
4374;DHT22;2201;51.100;6.814;2023-05-10T14:59:19;18.20;98.20
4374;DHT22;2201;51.100;6.814;2023-05-10T15:02:06;18.30;98.20
4374;DHT22;2201;51.100;6.814;2023-05-10T15:04:36;18.40;98.20
4374;DHT22;2201;51.100;6.814;2023-05-10T15:07:03;18.60;98.20
4374;DHT22;2201;51.100;6.814;2023-05-10T15:09:31;18.80;98.20
4374;DHT22;2201;51.100;6.814;2023-05-10T15:11:58;18.90;98.20
4374;DHT22;2201;51.100;6.814;2023-05-10T15:14:27;19.10;98.20
4374;DHT22;2201;51.100;6.814;2023-05-10T15:16:56;19.30;98.20
4374;DHT22;2201;51.100;6.814;2023-05-10T15:19:23;19.40;98.20
4374;DHT22;2201;51.100;6.814;2023-05-10T15:21:51;19.50;98.20
4374;DHT22;2201;51.100;6.814;2023-05-10T15:24:30;19.50;98.20
4374;DHT22;2201;51.100;6.814;2023-05-10T15:27:00;19.80;98.20
4374;DHT22;2201;51.100;6.814;2023-05-10T15:29:29;20.20;98.20
4374;DHT22;2201;51.100;6.814;2023-05-10T15:31:57;20.50;98.20
4374;DHT22;2201;51.100;6.814;2023-05-10T15:41:04;21.30;98.20
4374;DHT22;2201;51.100;6.814;2023-05-10T15:43:47;21.60;98.20
4374;DHT22;2201;51.100;6.814;2023-05-10T15:46:46;21.80;98.20
4374;DHT22;2201;51.100;6.814;2023-05-10T15:55:23;22.10;96.20
4374;DHT22;2201;51.100;6.814;2023-05-10T16:00:43;21.70;95.80
4374;DHT22;2201;51.100;6.814;2023-05-10T16:03:12;21.40;97.60
4374;DHT22;2201;51.100;6.814;2023-05-10T16:05:39;21.10;97.10
4374;DHT22;2201;51.100;6.814;2023-05-10T16:08:09;20.90;97.80
4374;DHT22;2201;51.100;6.814;2023-05-10T16:14:25;20.90;98.20
4374;DHT22;2201;51.100;6.814;2023-05-10T16:16:55;20.90;98.20
4374;DHT22;2201;51.100;6.814;2023-05-10T16:19:35;21.00;98.20
4374;DHT22;2201;51.100;6.814;2023-05-10T16:25:45;20.70;98.20
4374;DHT22;2201;51.100;6.814;2023-05-10T16:28:12;20.60;98.20
4374;DHT22;2201;51.100;6.814;2023-05-10T16:30:44;20.60;98.20
4374;DHT22;2201;51.100;6.814;2023-05-10T16:33:18;20.50;98.20
4374;DHT22;2201;51.100;6.814;2023-05-10T16:35:46;20.40;98.20
4374;DHT22;2201;51.100;6.814;2023-05-10T16:41:24;20.20;98.20
4374;DHT22;2201;51.100;6.814;2023-05-10T16:43:51;20.00;98.20
4374;DHT22;2201;51.100;6.814;2023-05-10T16:46:18;19.80;98.20
4374;DHT22;2201;51.100;6.814;2023-05-10T16:48:48;19.70;98.20
4374;DHT22;2201;51.100;6.814;2023-05-10T16:51:18;19.60;98.20
4374;DHT22;2201;51.100;6.814;2023-05-10T16:53:46;19.50;98.20
4374;DHT22;2201;51.100;6.814;2023-05-10T16:56:20;19.50;98.20